sensor_id;sensor_type;location;lat;lon;timestamp;temperature;humidity
1337;DHT22;662;48.814;9.318;2024-01-15T00:01:47;1.10;59.80
1337;DHT22;662;48.814;9.318;2024-01-15T00:04:13;1.00;59.70
1337;DHT22;662;48.814;9.318;2024-01-15T00:06:39;1.10;59.80
1337;DHT22;662;48.814;9.318;2024-01-15T00:09:04;1.00;59.80
1337;DHT22;662;48.814;9.318;2024-01-15T00:11:32;1.00;59.80
1337;DHT22;662;48.814;9.318;2024-01-15T00:13:57;1.00;59.80
1337;DHT22;662;48.814;9.318;2024-01-15T00:16:23;1.00;59.90
1337;DHT22;662;48.814;9.318;2024-01-15T00:18:49;1.00;59.90
1337;DHT22;662;48.814;9.318;2024-01-15T00:21:15;1.00;59.90
1337;DHT22;662;48.814;9.318;2024-01-15T00:23:49;0.90;59.80
1337;DHT22;662;48.814;9.318;2024-01-15T00:26:15;0.90;59.80
1337;DHT22;662;48.814;9.318;2024-01-15T00:28:41;0.90;59.80
1337;DHT22;662;48.814;9.318;2024-01-15T00:31:06;0.80;59.70
1337;DHT22;662;48.814;9.318;2024-01-15T00:33:32;0.80;59.80
1337;DHT22;662;48.814;9.318;2024-01-15T00:35:58;0.80;59.90
1337;DHT22;662;48.814;9.318;2024-01-15T00:38:23;0.80;60.00
1337;DHT22;662;48.814;9.318;2024-01-15T00:40:49;0.70;60.00
1337;DHT22;662;48.814;9.318;2024-01-15T00:43:15;0.80;60.20
1337;DHT22;662;48.814;9.318;2024-01-15T00:45:44;0.70;60.20
1337;DHT22;662;48.814;9.318;2024-01-15T00:48:10;0.70;60.20
1337;DHT22;662;48.814;9.318;2024-01-15T00:50:35;0.70;60.20
1337;DHT22;662;48.814;9.318;2024-01-15T00:53:01;0.70;60.20
1337;DHT22;662;48.814;9.318;2024-01-15T00:55:28;0.70;60.20
1337;DHT22;662;48.814;9.318;2024-01-15T00:57:53;0.70;60.30
1337;DHT22;662;48.814;9.318;2024-01-15T01:00:19;0.70;60.30
1337;DHT22;662;48.814;9.318;2024-01-15T01:02:44;0.70;60.30
1337;DHT22;662;48.814;9.318;2024-01-15T01:05:10;0.70;60.30
1337;DHT22;662;48.814;9.318;2024-01-15T01:07:36;0.70;60.40
1337;DHT22;662;48.814;9.318;2024-01-15T01:10:01;0.70;60.50
1337;DHT22;662;48.814;9.318;2024-01-15T01:12:27;0.70;61.20
1337;DHT22;662;48.814;9.318;2024-01-15T01:14:53;0.70;60.50
1337;DHT22;662;48.814;9.318;2024-01-15T01:17:18;0.60;60.30
1337;DHT22;662;48.814;9.318;2024-01-15T01:19:44;0.60;60.40
1337;DHT22;662;48.814;9.318;2024-01-15T01:22:09;0.70;60.50
1337;DHT22;662;48.814;9.318;2024-01-15T01:24:35;0.60;60.50
1337;DHT22;662;48.814;9.318;2024-01-15T01:27:01;0.70;60.50
1337;DHT22;662;48.814;9.318;2024-01-15T01:29:26;0.70;60.50
1337;DHT22;662;48.814;9.318;2024-01-15T01:31:52;0.70;60.60
1337;DHT22;662;48.814;9.318;2024-01-15T01:34:18;0.70;60.60
1337;DHT22;662;48.814;9.318;2024-01-15T01:36:46;0.70;60.60
1337;DHT22;662;48.814;9.318;2024-01-15T01:39:12;0.60;60.50
1337;DHT22;662;48.814;9.318;2024-01-15T01:41:38;0.70;60.60
1337;DHT22;662;48.814;9.318;2024-01-15T01:44:05;0.70;60.70
1337;DHT22;662;48.814;9.318;2024-01-15T01:46:31;0.70;60.70
1337;DHT22;662;48.814;9.318;2024-01-15T01:48:58;0.70;60.70
1337;DHT22;662;48.814;9.318;2024-01-15T01:51:26;0.70;60.70
1337;DHT22;662;48.814;9.318;2024-01-15T01:53:52;0.80;60.80
1337;DHT22;662;48.814;9.318;2024-01-15T01:56:18;0.80;60.90
1337;DHT22;662;48.814;9.318;2024-01-15T01:58:47;0.80;60.80
1337;DHT22;662;48.814;9.318;2024-01-15T02:01:13;0.80;60.80
1337;DHT22;662;48.814;9.318;2024-01-15T02:03:40;0.80;60.80
1337;DHT22;662;48.814;9.318;2024-01-15T02:06:06;0.80;60.80
1337;DHT22;662;48.814;9.318;2024-01-15T02:08:32;0.90;60.90
1337;DHT22;662;48.814;9.318;2024-01-15T02:10:57;0.90;60.90
1337;DHT22;662;48.814;9.318;2024-01-15T02:13:23;0.90;60.90
1337;DHT22;662;48.814;9.318;2024-01-15T02:15:49;0.90;61.30
1337;DHT22;662;48.814;9.318;2024-01-15T02:18:14;1.00;61.00
1337;DHT22;662;48.814;9.318;2024-01-15T02:20:40;0.90;60.90
1337;DHT22;662;48.814;9.318;2024-01-15T02:23:10;0.90;60.90
1337;DHT22;662;48.814;9.318;2024-01-15T02:25:46;1.00;61.00
1337;DHT22;662;48.814;9.318;2024-01-15T02:28:14;1.00;61.00
1337;DHT22;662;48.814;9.318;2024-01-15T02:30:40;1.00;61.10
1337;DHT22;662;48.814;9.318;2024-01-15T02:33:07;1.00;61.20
1337;DHT22;662;48.814;9.318;2024-01-15T02:35:33;1.00;61.40
1337;DHT22;662;48.814;9.318;2024-01-15T02:37:59;1.00;61.40
1337;DHT22;662;48.814;9.318;2024-01-15T02:40:25;1.00;61.60
1337;DHT22;662;48.814;9.318;2024-01-15T02:42:50;1.10;62.10
1337;DHT22;662;48.814;9.318;2024-01-15T02:45:17;1.10;62.40
1337;DHT22;662;48.814;9.318;2024-01-15T02:47:42;1.20;62.50
1337;DHT22;662;48.814;9.318;2024-01-15T02:50:08;1.20;62.60
1337;DHT22;662;48.814;9.318;2024-01-15T02:52:33;1.30;62.60
1337;DHT22;662;48.814;9.318;2024-01-15T02:54:59;1.30;62.50
1337;DHT22;662;48.814;9.318;2024-01-15T02:57:25;1.30;62.30
1337;DHT22;662;48.814;9.318;2024-01-15T02:59:50;1.40;62.20
1337;DHT22;662;48.814;9.318;2024-01-15T03:02:16;1.50;62.00
1337;DHT22;662;48.814;9.318;2024-01-15T03:04:45;1.50;61.90
1337;DHT22;662;48.814;9.318;2024-01-15T03:07:10;1.50;61.70
1337;DHT22;662;48.814;9.318;2024-01-15T03:09:36;1.50;61.60
1337;DHT22;662;48.814;9.318;2024-01-15T03:12:02;1.50;61.40
1337;DHT22;662;48.814;9.318;2024-01-15T03:14:28;1.50;61.20
1337;DHT22;662;48.814;9.318;2024-01-15T03:16:53;1.50;61.20
1337;DHT22;662;48.814;9.318;2024-01-15T03:19:19;1.50;61.10
1337;DHT22;662;48.814;9.318;2024-01-15T03:21:44;1.60;61.10
1337;DHT22;662;48.814;9.318;2024-01-15T03:24:10;1.50;60.90
1337;DHT22;662;48.814;9.318;2024-01-15T03:26:36;1.60;61.00
1337;DHT22;662;48.814;9.318;2024-01-15T03:29:01;1.50;60.80
1337;DHT22;662;48.814;9.318;2024-01-15T03:31:27;1.60;60.80
1337;DHT22;662;48.814;9.318;2024-01-15T03:33:53;1.60;60.70
1337;DHT22;662;48.814;9.318;2024-01-15T03:36:18;1.60;60.70
1337;DHT22;662;48.814;9.318;2024-01-15T03:38:44;1.60;60.70
1337;DHT22;662;48.814;9.318;2024-01-15T03:41:09;1.60;60.60
1337;DHT22;662;48.814;9.318;2024-01-15T03:43:35;1.60;60.50
1337;DHT22;662;48.814;9.318;2024-01-15T03:46:01;1.60;60.50
1337;DHT22;662;48.814;9.318;2024-01-15T03:48:27;1.60;60.50
1337;DHT22;662;48.814;9.318;2024-01-15T03:50:53;1.60;60.40
1337;DHT22;662;48.814;9.318;2024-01-15T03:53:19;1.60;60.40
1337;DHT22;662;48.814;9.318;2024-01-15T03:55:44;1.60;60.30
1337;DHT22;662;48.814;9.318;2024-01-15T03:58:10;1.60;60.30
1337;DHT22;662;48.814;9.318;2024-01-15T04:00:35;1.60;60.30
1337;DHT22;662;48.814;9.318;2024-01-15T04:03:01;1.60;60.30
1337;DHT22;662;48.814;9.318;2024-01-15T04:05:27;1.60;60.30
1337;DHT22;662;48.814;9.318;2024-01-15T04:07:52;1.60;60.40
1337;DHT22;662;48.814;9.318;2024-01-15T04:10:18;1.50;60.40
1337;DHT22;662;48.814;9.318;2024-01-15T04:12:44;1.60;60.70
1337;DHT22;662;48.814;9.318;2024-01-15T04:15:12;1.60;60.70
1337;DHT22;662;48.814;9.318;2024-01-15T04:17:38;1.60;60.70
1337;DHT22;662;48.814;9.318;2024-01-15T04:20:04;1.60;60.80
1337;DHT22;662;48.814;9.318;2024-01-15T04:22:30;1.60;60.80
1337;DHT22;662;48.814;9.318;2024-01-15T04:24:56;1.60;60.70
1337;DHT22;662;48.814;9.318;2024-01-15T04:27:21;1.70;60.80
1337;DHT22;662;48.814;9.318;2024-01-15T04:29:47;1.70;60.70
1337;DHT22;662;48.814;9.318;2024-01-15T04:32:12;1.70;60.70
1337;DHT22;662;48.814;9.318;2024-01-15T04:34:38;1.70;60.60
1337;DHT22;662;48.814;9.318;2024-01-15T04:37:04;1.70;60.50
1337;DHT22;662;48.814;9.318;2024-01-15T04:39:29;1.70;60.50
1337;DHT22;662;48.814;9.318;2024-01-15T04:41:55;1.70;60.50
1337;DHT22;662;48.814;9.318;2024-01-15T04:44:21;1.70;60.50
1337;DHT22;662;48.814;9.318;2024-01-15T04:46:46;1.70;60.50
1337;DHT22;662;48.814;9.318;2024-01-15T04:49:12;1.70;60.70
1337;DHT22;662;48.814;9.318;2024-01-15T04:51:37;1.70;60.80
1337;DHT22;662;48.814;9.318;2024-01-15T04:54:03;1.80;61.00
1337;DHT22;662;48.814;9.318;2024-01-15T04:56:29;1.80;61.10
1337;DHT22;662;48.814;9.318;2024-01-15T04:58:55;1.80;61.00
1337;DHT22;662;48.814;9.318;2024-01-15T05:01:20;1.80;60.90
1337;DHT22;662;48.814;9.318;2024-01-15T05:03:46;1.80;61.00
1337;DHT22;662;48.814;9.318;2024-01-15T05:06:11;1.90;61.00
1337;DHT22;662;48.814;9.318;2024-01-15T05:08:37;1.90;61.00
1337;DHT22;662;48.814;9.318;2024-01-15T05:11:03;1.90;61.00
1337;DHT22;662;48.814;9.318;2024-01-15T05:13:28;1.90;61.00
1337;DHT22;662;48.814;9.318;2024-01-15T05:15:54;2.00;61.00
1337;DHT22;662;48.814;9.318;2024-01-15T05:18:20;2.00;60.90
1337;DHT22;662;48.814;9.318;2024-01-15T05:20:45;2.00;60.80
1337;DHT22;662;48.814;9.318;2024-01-15T05:23:11;2.00;60.80
1337;DHT22;662;48.814;9.318;2024-01-15T05:25:37;2.00;60.70
1337;DHT22;662;48.814;9.318;2024-01-15T05:28:02;2.10;60.80
1337;DHT22;662;48.814;9.318;2024-01-15T05:30:28;2.10;60.70
1337;DHT22;662;48.814;9.318;2024-01-15T05:32:54;2.20;60.80
1337;DHT22;662;48.814;9.318;2024-01-15T05:35:19;2.20;60.80
1337;DHT22;662;48.814;9.318;2024-01-15T05:37:45;2.20;60.70
1337;DHT22;662;48.814;9.318;2024-01-15T05:40:12;2.20;60.60
1337;DHT22;662;48.814;9.318;2024-01-15T05:42:38;2.20;60.50
1337;DHT22;662;48.814;9.318;2024-01-15T05:45:05;2.30;60.50
1337;DHT22;662;48.814;9.318;2024-01-15T05:47:31;2.30;60.20
1337;DHT22;662;48.814;9.318;2024-01-15T05:49:57;2.40;60.00
1337;DHT22;662;48.814;9.318;2024-01-15T05:52:23;2.40;59.90
1337;DHT22;662;48.814;9.318;2024-01-15T05:54:49;2.40;59.90
1337;DHT22;662;48.814;9.318;2024-01-15T05:57:15;2.40;59.70
1337;DHT22;662;48.814;9.318;2024-01-15T05:59:44;2.50;59.80
1337;DHT22;662;48.814;9.318;2024-01-15T06:02:10;2.50;59.70
1337;DHT22;662;48.814;9.318;2024-01-15T06:04:37;2.50;59.70
1337;DHT22;662;48.814;9.318;2024-01-15T06:07:02;2.50;59.70
1337;DHT22;662;48.814;9.318;2024-01-15T06:09:28;2.60;59.70
1337;DHT22;662;48.814;9.318;2024-01-15T06:11:55;2.60;59.70
1337;DHT22;662;48.814;9.318;2024-01-15T06:14:20;2.60;59.60
1337;DHT22;662;48.814;9.318;2024-01-15T06:16:46;2.60;59.60
1337;DHT22;662;48.814;9.318;2024-01-15T06:19:11;2.60;59.50
1337;DHT22;662;48.814;9.318;2024-01-15T06:21:37;2.60;59.40
1337;DHT22;662;48.814;9.318;2024-01-15T06:24:03;2.60;59.50
1337;DHT22;662;48.814;9.318;2024-01-15T06:26:29;2.60;59.40
1337;DHT22;662;48.814;9.318;2024-01-15T06:28:55;2.60;59.30
1337;DHT22;662;48.814;9.318;2024-01-15T06:31:21;2.60;59.10
1337;DHT22;662;48.814;9.318;2024-01-15T06:33:46;2.70;59.20
1337;DHT22;662;48.814;9.318;2024-01-15T06:36:13;2.60;59.10
1337;DHT22;662;48.814;9.318;2024-01-15T06:38:39;2.70;59.10
1337;DHT22;662;48.814;9.318;2024-01-15T06:41:05;2.60;59.00
1337;DHT22;662;48.814;9.318;2024-01-15T06:43:31;2.60;59.10
1337;DHT22;662;48.814;9.318;2024-01-15T06:45:56;2.60;59.10
1337;DHT22;662;48.814;9.318;2024-01-15T06:48:22;2.60;59.00
1337;DHT22;662;48.814;9.318;2024-01-15T06:50:48;2.60;59.10
1337;DHT22;662;48.814;9.318;2024-01-15T06:53:13;2.60;59.10
1337;DHT22;662;48.814;9.318;2024-01-15T06:55:39;2.60;59.00
1337;DHT22;662;48.814;9.318;2024-01-15T06:58:05;2.60;59.00
1337;DHT22;662;48.814;9.318;2024-01-15T07:00:30;2.60;59.10
1337;DHT22;662;48.814;9.318;2024-01-15T07:02:56;2.60;59.00
1337;DHT22;662;48.814;9.318;2024-01-15T07:05:23;2.70;59.10
1337;DHT22;662;48.814;9.318;2024-01-15T07:07:48;2.70;59.10
1337;DHT22;662;48.814;9.318;2024-01-15T07:10:15;2.70;59.00
1337;DHT22;662;48.814;9.318;2024-01-15T07:12:44;2.70;59.10
1337;DHT22;662;48.814;9.318;2024-01-15T07:15:10;2.70;59.10
1337;DHT22;662;48.814;9.318;2024-01-15T07:17:36;2.70;59.10
1337;DHT22;662;48.814;9.318;2024-01-15T07:20:06;2.70;59.10
1337;DHT22;662;48.814;9.318;2024-01-15T07:22:33;2.70;59.10
1337;DHT22;662;48.814;9.318;2024-01-15T07:24:59;2.80;59.20
1337;DHT22;662;48.814;9.318;2024-01-15T07:27:25;2.80;59.10
1337;DHT22;662;48.814;9.318;2024-01-15T07:29:50;2.80;59.00
1337;DHT22;662;48.814;9.318;2024-01-15T07:32:16;2.80;59.00
1337;DHT22;662;48.814;9.318;2024-01-15T07:34:42;2.80;59.00
1337;DHT22;662;48.814;9.318;2024-01-15T07:37:08;2.90;59.00
1337;DHT22;662;48.814;9.318;2024-01-15T07:39:33;2.90;59.00
1337;DHT22;662;48.814;9.318;2024-01-15T07:42:00;2.90;58.90
1337;DHT22;662;48.814;9.318;2024-01-15T07:44:28;2.90;58.80
1337;DHT22;662;48.814;9.318;2024-01-15T07:46:53;2.90;58.80
1337;DHT22;662;48.814;9.318;2024-01-15T07:49:19;2.90;58.60
1337;DHT22;662;48.814;9.318;2024-01-15T07:51:44;2.90;58.40
1337;DHT22;662;48.814;9.318;2024-01-15T07:54:10;2.90;58.40
1337;DHT22;662;48.814;9.318;2024-01-15T07:56:57;3.00;58.30
1337;DHT22;662;48.814;9.318;2024-01-15T07:59:23;3.00;58.10
1337;DHT22;662;48.814;9.318;2024-01-15T08:01:49;3.00;58.00
1337;DHT22;662;48.814;9.318;2024-01-15T08:04:15;2.90;57.80
1337;DHT22;662;48.814;9.318;2024-01-15T08:06:41;3.00;57.80
1337;DHT22;662;48.814;9.318;2024-01-15T08:09:06;3.00;57.80
1337;DHT22;662;48.814;9.318;2024-01-15T08:11:35;3.00;57.80
1337;DHT22;662;48.814;9.318;2024-01-15T08:14:02;3.00;57.60
1337;DHT22;662;48.814;9.318;2024-01-15T08:16:28;3.00;57.50
1337;DHT22;662;48.814;9.318;2024-01-15T08:18:53;3.10;57.40
1337;DHT22;662;48.814;9.318;2024-01-15T08:21:19;3.10;57.30
1337;DHT22;662;48.814;9.318;2024-01-15T08:23:45;3.10;57.30
1337;DHT22;662;48.814;9.318;2024-01-15T08:26:11;3.10;57.30
1337;DHT22;662;48.814;9.318;2024-01-15T08:28:36;3.10;57.00
1337;DHT22;662;48.814;9.318;2024-01-15T08:31:02;3.20;56.90
1337;DHT22;662;48.814;9.318;2024-01-15T08:33:28;3.20;56.80
1337;DHT22;662;48.814;9.318;2024-01-15T08:35:54;3.20;56.60
1337;DHT22;662;48.814;9.318;2024-01-15T08:38:20;3.30;56.50
1337;DHT22;662;48.814;9.318;2024-01-15T08:40:46;3.30;56.40
1337;DHT22;662;48.814;9.318;2024-01-15T08:43:12;3.30;56.40
1337;DHT22;662;48.814;9.318;2024-01-15T08:45:38;3.30;56.20
1337;DHT22;662;48.814;9.318;2024-01-15T08:48:04;3.30;56.00
1337;DHT22;662;48.814;9.318;2024-01-15T08:50:30;3.30;56.00
1337;DHT22;662;48.814;9.318;2024-01-15T08:52:57;3.40;56.10
1337;DHT22;662;48.814;9.318;2024-01-15T08:55:23;3.40;56.10
1337;DHT22;662;48.814;9.318;2024-01-15T08:57:49;3.40;55.80
1337;DHT22;662;48.814;9.318;2024-01-15T09:00:15;3.40;55.80
1337;DHT22;662;48.814;9.318;2024-01-15T09:02:41;3.40;55.70
1337;DHT22;662;48.814;9.318;2024-01-15T09:05:10;3.50;55.70
1337;DHT22;662;48.814;9.318;2024-01-15T09:07:35;3.50;55.50
1337;DHT22;662;48.814;9.318;2024-01-15T09:10:01;3.50;55.50
1337;DHT22;662;48.814;9.318;2024-01-15T09:12:27;3.50;55.40
1337;DHT22;662;48.814;9.318;2024-01-15T09:14:53;3.60;55.40
1337;DHT22;662;48.814;9.318;2024-01-15T09:17:20;3.60;55.40
1337;DHT22;662;48.814;9.318;2024-01-15T09:19:45;3.60;55.40
1337;DHT22;662;48.814;9.318;2024-01-15T09:22:12;3.70;55.30
1337;DHT22;662;48.814;9.318;2024-01-15T09:24:40;3.70;55.00
1337;DHT22;662;48.814;9.318;2024-01-15T09:27:06;3.70;54.60
1337;DHT22;662;48.814;9.318;2024-01-15T09:29:32;3.70;54.60
1337;DHT22;662;48.814;9.318;2024-01-15T09:31:57;3.80;54.60
1337;DHT22;662;48.814;9.318;2024-01-15T09:34:23;3.80;54.40
1337;DHT22;662;48.814;9.318;2024-01-15T09:36:49;3.80;54.30
1337;DHT22;662;48.814;9.318;2024-01-15T09:39:15;3.90;54.30
1337;DHT22;662;48.814;9.318;2024-01-15T09:41:41;3.90;54.10
1337;DHT22;662;48.814;9.318;2024-01-15T09:44:07;3.90;54.10
1337;DHT22;662;48.814;9.318;2024-01-15T09:46:35;4.00;54.20
1337;DHT22;662;48.814;9.318;2024-01-15T09:49:01;4.00;54.00
1337;DHT22;662;48.814;9.318;2024-01-15T09:51:31;4.00;53.90
1337;DHT22;662;48.814;9.318;2024-01-15T09:53:58;4.10;54.00
1337;DHT22;662;48.814;9.318;2024-01-15T09:56:24;4.10;54.00
1337;DHT22;662;48.814;9.318;2024-01-15T09:58:50;4.10;54.00
1337;DHT22;662;48.814;9.318;2024-01-15T10:01:20;4.20;54.00
1337;DHT22;662;48.814;9.318;2024-01-15T10:03:46;4.20;53.90
1337;DHT22;662;48.814;9.318;2024-01-15T10:06:15;4.20;53.70
1337;DHT22;662;48.814;9.318;2024-01-15T10:08:47;4.20;53.70
1337;DHT22;662;48.814;9.318;2024-01-15T10:11:13;4.30;53.70
1337;DHT22;662;48.814;9.318;2024-01-15T10:13:39;4.30;53.70
1337;DHT22;662;48.814;9.318;2024-01-15T10:16:05;4.20;53.50
1337;DHT22;662;48.814;9.318;2024-01-15T10:18:31;4.30;53.30
1337;DHT22;662;48.814;9.318;2024-01-15T10:20:57;4.30;53.40
1337;DHT22;662;48.814;9.318;2024-01-15T10:23:24;4.30;53.30
1337;DHT22;662;48.814;9.318;2024-01-15T10:25:49;4.30;53.40
1337;DHT22;662;48.814;9.318;2024-01-15T10:28:19;4.30;53.20
1337;DHT22;662;48.814;9.318;2024-01-15T10:30:45;4.30;53.30
1337;DHT22;662;48.814;9.318;2024-01-15T10:33:10;4.30;53.20
1337;DHT22;662;48.814;9.318;2024-01-15T10:35:38;4.40;53.30
1337;DHT22;662;48.814;9.318;2024-01-15T10:38:05;4.30;53.20
1337;DHT22;662;48.814;9.318;2024-01-15T10:40:31;4.40;53.30
1337;DHT22;662;48.814;9.318;2024-01-15T10:42:57;4.40;53.30
1337;DHT22;662;48.814;9.318;2024-01-15T10:45:23;4.40;53.30
1337;DHT22;662;48.814;9.318;2024-01-15T10:47:49;4.40;53.20
1337;DHT22;662;48.814;9.318;2024-01-15T10:50:15;4.40;53.00
1337;DHT22;662;48.814;9.318;2024-01-15T10:52:42;4.40;53.00
1337;DHT22;662;48.814;9.318;2024-01-15T10:55:11;4.40;53.00
1337;DHT22;662;48.814;9.318;2024-01-15T10:57:37;4.40;53.00
1337;DHT22;662;48.814;9.318;2024-01-15T11:00:04;4.40;53.00
1337;DHT22;662;48.814;9.318;2024-01-15T11:02:36;4.50;53.20
1337;DHT22;662;48.814;9.318;2024-01-15T11:05:02;4.50;53.00
1337;DHT22;662;48.814;9.318;2024-01-15T11:07:30;4.50;53.00
1337;DHT22;662;48.814;9.318;2024-01-15T11:09:56;4.50;53.00
1337;DHT22;662;48.814;9.318;2024-01-15T11:12:24;4.50;53.00
1337;DHT22;662;48.814;9.318;2024-01-15T11:14:50;4.50;53.20
1337;DHT22;662;48.814;9.318;2024-01-15T11:17:17;4.50;53.40
1337;DHT22;662;48.814;9.318;2024-01-15T11:19:45;4.50;53.60
1337;DHT22;662;48.814;9.318;2024-01-15T11:22:47;4.50;53.70
1337;DHT22;662;48.814;9.318;2024-01-15T11:25:14;4.50;53.90
1337;DHT22;662;48.814;9.318;2024-01-15T11:27:40;4.40;54.20
1337;DHT22;662;48.814;9.318;2024-01-15T11:30:11;4.40;54.50
1337;DHT22;662;48.814;9.318;2024-01-15T11:32:37;4.30;54.70
1337;DHT22;662;48.814;9.318;2024-01-15T11:35:03;4.30;55.10
1337;DHT22;662;48.814;9.318;2024-01-15T11:40:19;4.30;56.40
1337;DHT22;662;48.814;9.318;2024-01-15T11:42:45;4.30;56.90
1337;DHT22;662;48.814;9.318;2024-01-15T11:45:11;4.30;57.20
1337;DHT22;662;48.814;9.318;2024-01-15T11:50:34;4.40;57.60
1337;DHT22;662;48.814;9.318;2024-01-15T11:53:01;4.30;57.40
1337;DHT22;662;48.814;9.318;2024-01-15T11:55:34;4.30;57.60
1337;DHT22;662;48.814;9.318;2024-01-15T11:58:01;4.30;57.80
1337;DHT22;662;48.814;9.318;2024-01-15T12:00:27;4.30;57.70
1337;DHT22;662;48.814;9.318;2024-01-15T12:02:53;4.30;57.70
1337;DHT22;662;48.814;9.318;2024-01-15T12:05:20;4.20;57.80
1337;DHT22;662;48.814;9.318;2024-01-15T12:07:50;4.10;58.20
1337;DHT22;662;48.814;9.318;2024-01-15T12:10:22;4.10;58.60
1337;DHT22;662;48.814;9.318;2024-01-15T12:15:29;4.10;59.10
1337;DHT22;662;48.814;9.318;2024-01-15T12:17:56;4.00;59.60
1337;DHT22;662;48.814;9.318;2024-01-15T12:20:29;4.00;60.10
1337;DHT22;662;48.814;9.318;2024-01-15T12:22:55;4.00;60.50
1337;DHT22;662;48.814;9.318;2024-01-15T12:25:22;4.00;60.70
1337;DHT22;662;48.814;9.318;2024-01-15T12:27:48;4.00;60.80
1337;DHT22;662;48.814;9.318;2024-01-15T12:30:14;4.00;60.50
1337;DHT22;662;48.814;9.318;2024-01-15T12:32:41;3.90;60.50
1337;DHT22;662;48.814;9.318;2024-01-15T12:35:13;3.90;60.90
1337;DHT22;662;48.814;9.318;2024-01-15T12:37:39;3.90;61.00
1337;DHT22;662;48.814;9.318;2024-01-15T12:40:07;3.90;61.20
1337;DHT22;662;48.814;9.318;2024-01-15T12:42:36;3.80;62.20
1337;DHT22;662;48.814;9.318;2024-01-15T12:45:03;3.80;61.90
1337;DHT22;662;48.814;9.318;2024-01-15T12:47:30;3.80;62.30
1337;DHT22;662;48.814;9.318;2024-01-15T12:49:57;3.80;62.60
1337;DHT22;662;48.814;9.318;2024-01-15T12:52:23;3.70;62.80
1337;DHT22;662;48.814;9.318;2024-01-15T12:54:49;3.80;63.20
1337;DHT22;662;48.814;9.318;2024-01-15T12:57:16;3.80;63.60
1337;DHT22;662;48.814;9.318;2024-01-15T12:59:42;3.70;64.00
1337;DHT22;662;48.814;9.318;2024-01-15T13:02:07;3.70;64.50
1337;DHT22;662;48.814;9.318;2024-01-15T13:04:33;3.70;65.10
1337;DHT22;662;48.814;9.318;2024-01-15T13:06:59;3.60;65.50
1337;DHT22;662;48.814;9.318;2024-01-15T13:09:24;3.60;66.20
1337;DHT22;662;48.814;9.318;2024-01-15T13:11:50;3.60;66.60
1337;DHT22;662;48.814;9.318;2024-01-15T13:14:16;3.50;66.90
1337;DHT22;662;48.814;9.318;2024-01-15T13:16:42;3.50;67.30
1337;DHT22;662;48.814;9.318;2024-01-15T13:19:10;3.60;67.80
1337;DHT22;662;48.814;9.318;2024-01-15T13:21:41;3.50;67.80
1337;DHT22;662;48.814;9.318;2024-01-15T13:24:07;3.60;68.10
1337;DHT22;662;48.814;9.318;2024-01-15T13:26:36;3.60;68.10
1337;DHT22;662;48.814;9.318;2024-01-15T13:29:05;3.50;68.10
1337;DHT22;662;48.814;9.318;2024-01-15T13:31:31;3.50;68.40
1337;DHT22;662;48.814;9.318;2024-01-15T13:33:57;3.40;68.60
1337;DHT22;662;48.814;9.318;2024-01-15T13:36:24;3.40;68.70
1337;DHT22;662;48.814;9.318;2024-01-15T13:38:50;3.50;69.10
1337;DHT22;662;48.814;9.318;2024-01-15T13:41:17;3.40;69.10
1337;DHT22;662;48.814;9.318;2024-01-15T13:43:49;3.50;69.30
1337;DHT22;662;48.814;9.318;2024-01-15T13:46:16;3.50;69.40
1337;DHT22;662;48.814;9.318;2024-01-15T13:48:43;3.50;69.40
1337;DHT22;662;48.814;9.318;2024-01-15T13:51:09;3.50;69.50
1337;DHT22;662;48.814;9.318;2024-01-15T13:53:35;3.50;69.60
1337;DHT22;662;48.814;9.318;2024-01-15T13:56:00;3.50;69.50
1337;DHT22;662;48.814;9.318;2024-01-15T13:58:26;3.50;69.60
1337;DHT22;662;48.814;9.318;2024-01-15T14:00:52;3.50;69.50
1337;DHT22;662;48.814;9.318;2024-01-15T14:03:18;3.50;69.70
1337;DHT22;662;48.814;9.318;2024-01-15T14:05:44;3.50;69.70
1337;DHT22;662;48.814;9.318;2024-01-15T14:08:10;3.60;69.80
1337;DHT22;662;48.814;9.318;2024-01-15T14:10:36;3.50;69.70
1337;DHT22;662;48.814;9.318;2024-01-15T14:13:03;3.50;69.70
1337;DHT22;662;48.814;9.318;2024-01-15T14:15:28;3.60;69.90
1337;DHT22;662;48.814;9.318;2024-01-15T14:17:54;3.50;69.80
1337;DHT22;662;48.814;9.318;2024-01-15T14:20:20;3.60;69.80
1337;DHT22;662;48.814;9.318;2024-01-15T14:22:45;3.60;69.80
1337;DHT22;662;48.814;9.318;2024-01-15T14:25:11;3.60;69.80
1337;DHT22;662;48.814;9.318;2024-01-15T14:27:36;3.60;69.80
1337;DHT22;662;48.814;9.318;2024-01-15T14:30:02;3.60;69.70
1337;DHT22;662;48.814;9.318;2024-01-15T14:32:28;3.60;69.60
1337;DHT22;662;48.814;9.318;2024-01-15T14:34:54;3.60;69.50
1337;DHT22;662;48.814;9.318;2024-01-15T14:37:22;3.60;69.40
1337;DHT22;662;48.814;9.318;2024-01-15T14:39:47;3.70;69.50
1337;DHT22;662;48.814;9.318;2024-01-15T14:42:13;3.60;69.40
1337;DHT22;662;48.814;9.318;2024-01-15T14:44:39;3.60;69.40
1337;DHT22;662;48.814;9.318;2024-01-15T14:47:06;3.60;69.40
1337;DHT22;662;48.814;9.318;2024-01-15T14:49:33;3.60;69.50
1337;DHT22;662;48.814;9.318;2024-01-15T14:51:59;3.50;69.40
1337;DHT22;662;48.814;9.318;2024-01-15T14:54:25;3.50;69.50
1337;DHT22;662;48.814;9.318;2024-01-15T14:56:51;3.50;69.60
1337;DHT22;662;48.814;9.318;2024-01-15T14:59:17;3.40;69.60
1337;DHT22;662;48.814;9.318;2024-01-15T15:01:42;3.40;69.60
1337;DHT22;662;48.814;9.318;2024-01-15T15:04:08;3.40;69.70
1337;DHT22;662;48.814;9.318;2024-01-15T15:06:36;3.40;69.70
1337;DHT22;662;48.814;9.318;2024-01-15T15:09:01;3.40;69.80
1337;DHT22;662;48.814;9.318;2024-01-15T15:11:27;3.40;69.70
1337;DHT22;662;48.814;9.318;2024-01-15T15:13:53;3.30;69.80
1337;DHT22;662;48.814;9.318;2024-01-15T15:16:19;3.30;70.00
1337;DHT22;662;48.814;9.318;2024-01-15T15:18:44;3.20;70.10
1337;DHT22;662;48.814;9.318;2024-01-15T15:21:11;3.20;70.20
1337;DHT22;662;48.814;9.318;2024-01-15T15:23:37;3.20;70.40
1337;DHT22;662;48.814;9.318;2024-01-15T15:26:04;3.10;70.40
1337;DHT22;662;48.814;9.318;2024-01-15T15:28:30;3.10;70.60
1337;DHT22;662;48.814;9.318;2024-01-15T15:30:56;3.10;70.70
1337;DHT22;662;48.814;9.318;2024-01-15T15:33:22;3.10;70.70
1337;DHT22;662;48.814;9.318;2024-01-15T15:35:48;3.10;70.70
1337;DHT22;662;48.814;9.318;2024-01-15T15:38:17;3.10;70.60
1337;DHT22;662;48.814;9.318;2024-01-15T15:40:42;3.10;70.60
1337;DHT22;662;48.814;9.318;2024-01-15T15:43:08;3.10;70.50
1337;DHT22;662;48.814;9.318;2024-01-15T15:45:34;3.10;70.50
1337;DHT22;662;48.814;9.318;2024-01-15T15:47:59;3.10;70.20
1337;DHT22;662;48.814;9.318;2024-01-15T15:50:25;3.10;70.10
1337;DHT22;662;48.814;9.318;2024-01-15T15:52:51;3.10;69.80
1337;DHT22;662;48.814;9.318;2024-01-15T15:55:16;3.10;69.40
1337;DHT22;662;48.814;9.318;2024-01-15T15:57:42;3.10;68.90
1337;DHT22;662;48.814;9.318;2024-01-15T16:00:08;3.00;68.50
1337;DHT22;662;48.814;9.318;2024-01-15T16:02:34;3.00;68.40
1337;DHT22;662;48.814;9.318;2024-01-15T16:05:00;3.00;68.00
1337;DHT22;662;48.814;9.318;2024-01-15T16:07:26;3.00;67.60
1337;DHT22;662;48.814;9.318;2024-01-15T16:09:55;3.00;67.20
1337;DHT22;662;48.814;9.318;2024-01-15T16:12:20;3.00;67.10
1337;DHT22;662;48.814;9.318;2024-01-15T16:14:46;3.00;66.80
1337;DHT22;662;48.814;9.318;2024-01-15T16:17:11;3.00;66.20
1337;DHT22;662;48.814;9.318;2024-01-15T16:19:37;3.00;66.30
1337;DHT22;662;48.814;9.318;2024-01-15T16:22:03;2.90;66.20
1337;DHT22;662;48.814;9.318;2024-01-15T16:24:29;2.90;66.20
1337;DHT22;662;48.814;9.318;2024-01-15T16:26:55;3.00;66.50
1337;DHT22;662;48.814;9.318;2024-01-15T16:29:20;2.90;66.60
1337;DHT22;662;48.814;9.318;2024-01-15T16:31:46;2.90;66.80
1337;DHT22;662;48.814;9.318;2024-01-15T16:34:12;2.90;66.60
1337;DHT22;662;48.814;9.318;2024-01-15T16:36:37;2.90;66.50